Time;durP1;ratioP1;P1;durP2;ratioP2;P2;SDS_P1;SDS_P2;PMS_P1;PMS_P2;Temp;Humidity;BMP_temperature;BMP_pressure;BME280_temperature;BME280_humidity;BME280_pressure;Samples;Min_cycle;Max_cycle;Signal;HPM_P1;HPM_P2
2020/12/29 00:02:25;;;;;;;1.67;1.50;;;2.90;98.20;;;;;;5001934;28;20588;-78
2020/12/29 00:04:51;;;;;;;1.63;1.50;;;2.80;98.20;;;;;;5002391;28;20488;-78
2020/12/29 00:07:17;;;;;;;1.70;1.50;;;2.80;98.20;;;;;;5004993;28;20492;-77
2020/12/29 00:09:44;;;;;;;1.67;1.40;;;2.80;98.20;;;;;;5004923;28;20582;-78
2020/12/29 00:12:11;;;;;;;1.67;1.50;;;2.80;98.20;;;;;;5001416;28;20551;-77
2020/12/29 00:14:38;;;;;;;1.63;1.40;;;2.70;98.20;;;;;;5003007;28;20555;-78
2020/12/29 00:17:04;;;;;;;1.80;1.70;;;2.70;98.20;;;;;;5005537;28;20956;-77
2020/12/29 00:19:30;;;;;;;1.70;1.60;;;2.70;98.20;;;;;;5007066;28;20586;-78
2020/12/29 00:21:58;;;;;;;1.70;1.50;;;2.70;98.20;;;;;;5003769;28;20969;-78
2020/12/29 00:24:24;;;;;;;1.90;1.80;;;2.60;98.20;;;;;;5011444;28;20472;-78
2020/12/29 00:26:51;;;;;;;1.70;1.50;;;2.60;98.20;;;;;;5004991;28;20942;-78
2020/12/29 00:29:18;;;;;;;1.67;1.50;;;2.60;98.20;;;;;;5006681;28;20583;-78
2020/12/29 00:31:44;;;;;;;1.67;1.50;;;2.60;98.20;;;;;;5007566;28;21028;-78
2020/12/29 00:34:11;;;;;;;1.70;1.60;;;2.60;98.20;;;;;;5008735;28;20567;-78
2020/12/29 00:36:38;;;;;;;1.70;1.50;;;2.60;98.20;;;;;;5010893;28;20532;-78
2020/12/29 00:39:05;;;;;;;1.70;1.50;;;2.50;98.20;;;;;;5005792;28;20902;-78
2020/12/29 00:41:32;;;;;;;1.70;1.50;;;2.50;98.20;;;;;;5005804;28;20492;-79
2020/12/29 00:43:58;;;;;;;1.70;1.40;;;2.40;98.20;;;;;;5010408;28;20508;-79
2020/12/29 00:46:25;;;;;;;1.70;1.50;;;2.40;98.20;;;;;;5008230;28;20515;-77
2020/12/29 00:48:52;;;;;;;1.70;1.50;;;2.30;98.20;;;;;;5011886;28;20534;-76
2020/12/29 00:51:20;;;;;;;1.70;1.60;;;2.30;98.20;;;;;;5010631;28;20504;-77
2020/12/29 00:53:47;;;;;;;1.70;1.50;;;2.30;98.20;;;;;;5020326;28;20579;-78
2020/12/29 00:56:13;;;;;;;1.70;1.50;;;2.20;98.20;;;;;;5017456;28;20465;-78
2020/12/29 00:58:40;;;;;;;1.70;1.50;;;2.20;98.20;;;;;;5010582;28;20754;-78
2020/12/29 01:01:09;;;;;;;1.70;1.50;;;2.20;98.20;;;;;;5016079;28;20488;-78
2020/12/29 01:03:37;;;;;;;1.70;1.50;;;2.10;98.20;;;;;;5009982;28;20993;-78
2020/12/29 01:06:03;;;;;;;1.70;1.50;;;2.10;98.20;;;;;;5007913;28;20776;-79
2020/12/29 01:08:30;;;;;;;1.80;1.70;;;2.10;98.20;;;;;;5011235;28;20790;-78
2020/12/29 01:10:57;;;;;;;1.70;1.60;;;2.10;98.20;;;;;;5010607;28;20559;-78
2020/12/29 01:13:24;;;;;;;1.67;1.50;;;2.10;98.20;;;;;;5007196;28;20500;-77
2020/12/29 01:15:52;;;;;;;1.70;1.50;;;2.10;98.20;;;;;;5011257;28;21029;-79
2020/12/29 01:18:19;;;;;;;1.70;1.60;;;2.20;98.20;;;;;;5014576;28;20527;-78
2020/12/29 01:20:48;;;;;;;1.70;1.50;;;2.20;98.20;;;;;;5017331;28;20496;-79
2020/12/29 01:23:14;;;;;;;1.70;1.50;;;2.20;98.20;;;;;;5014870;28;20544;-77
2020/12/29 01:25:41;;;;;;;1.70;1.50;;;2.20;98.20;;;;;;5014483;28;20579;-77
2020/12/29 01:28:09;;;;;;;1.67;1.50;;;2.20;98.20;;;;;;5011340;28;20491;-78
2020/12/29 01:30:36;;;;;;;1.83;1.73;;;2.20;98.20;;;;;;5013618;28;20495;-78
2020/12/29 01:33:02;;;;;;;1.70;1.50;;;2.20;98.20;;;;;;5007539;28;20503;-78
2020/12/29 01:35:28;;;;;;;1.80;1.70;;;2.20;98.20;;;;;;5012821;28;20601;-77
2020/12/29 01:37:56;;;;;;;1.70;1.60;;;2.20;98.20;;;;;;5011566;28;20496;-78
2020/12/29 01:40:22;;;;;;;1.70;1.50;;;2.20;98.20;;;;;;5014458;28;20475;-79
2020/12/29 01:42:49;;;;;;;1.70;1.50;;;2.20;98.20;;;;;;5012061;28;21211;-79
2020/12/29 01:45:18;;;;;;;1.70;1.50;;;2.20;98.20;;;;;;5008474;28;20907;-79
2020/12/29 01:47:47;;;;;;;1.70;1.50;;;2.20;98.20;;;;;;5013506;28;20468;-79
2020/12/29 01:50:14;;;;;;;1.70;1.50;;;2.30;98.20;;;;;;5019271;28;20500;-79
2020/12/29 01:52:41;;;;;;;1.70;1.50;;;2.30;98.20;;;;;;5016243;28;20544;-78
2020/12/29 01:55:09;;;;;;;1.67;1.53;;;2.30;98.20;;;;;;5019194;28;20484;-78
2020/12/29 01:57:37;;;;;;;1.70;1.60;;;2.30;98.20;;;;;;5011224;28;20504;-78
2020/12/29 02:00:06;;;;;;;1.70;1.60;;;2.30;98.20;;;;;;5013776;28;21007;-78
2020/12/29 02:02:33;;;;;;;1.70;1.50;;;2.40;98.20;;;;;;5010846;28;20547;-77
2020/12/29 02:05:00;;;;;;;1.67;1.50;;;2.40;98.20;;;;;;5013633;28;20487;-78
2020/12/29 02:07:27;;;;;;;1.67;1.50;;;2.40;98.20;;;;;;5012389;28;20524;-78
2020/12/29 02:09:54;;;;;;;1.63;1.50;;;2.40;98.20;;;;;;5015524;28;20512;-78
2020/12/29 02:12:23;;;;;;;1.70;1.50;;;2.50;98.20;;;;;;5018239;28;20460;-79
2020/12/29 02:14:49;;;;;;;1.67;1.50;;;2.50;98.20;;;;;;5019936;28;20464;-78
2020/12/29 02:17:16;;;;;;;1.70;1.50;;;2.50;98.20;;;;;;5014869;28;20933;-78
2020/12/29 02:19:42;;;;;;;1.70;1.60;;;2.50;98.20;;;;;;5020284;28;20525;-78
2020/12/29 02:22:09;;;;;;;1.70;1.60;;;2.60;98.20;;;;;;5006798;28;20522;-79
2020/12/29 02:24:37;;;;;;;1.60;1.40;;;2.60;98.20;;;;;;5011641;28;20543;-78
2020/12/29 02:27:04;;;;;;;1.63;1.40;;;2.60;98.20;;;;;;5002474;28;20904;-78
2020/12/29 02:29:33;;;;;;;1.67;1.40;;;2.60;98.20;;;;;;5006707;28;20567;-79
2020/12/29 02:31:59;;;;;;;1.70;1.50;;;2.70;98.20;;;;;;5008887;28;20693;-79
2020/12/29 02:34:26;;;;;;;1.63;1.40;;;2.70;98.20;;;;;;5005539;28;20491;-79
2020/12/29 02:36:53;;;;;;;1.63;1.40;;;2.70;98.20;;;;;;5008425;28;20457;-79
2020/12/29 02:39:20;;;;;;;1.70;1.53;;;2.70;98.20;;;;;;5009277;28;20564;-79
2020/12/29 02:41:48;;;;;;;1.77;1.67;;;2.70;98.20;;;;;;5008573;28;20461;-78
2020/12/29 02:44:20;;;;;;;1.70;1.60;;;2.70;98.20;;;;;;5010525;28;20498;-79
2020/12/29 02:46:48;;;;;;;1.67;1.50;;;2.70;98.20;;;;;;5012040;28;20495;-78
2020/12/29 02:49:15;;;;;;;1.67;1.50;;;2.70;98.20;;;;;;5006269;28;20492;-79
2020/12/29 02:51:41;;;;;;;1.60;1.43;;;2.80;98.20;;;;;;5005023;28;20889;-79
2020/12/29 02:54:08;;;;;;;1.67;1.50;;;2.80;98.20;;;;;;5009353;28;20456;-79
2020/12/29 02:56:34;;;;;;;1.70;1.50;;;2.80;98.20;;;;;;5011220;28;20484;-79
2020/12/29 02:59:02;;;;;;;1.63;1.50;;;2.80;98.20;;;;;;5005876;28;20571;-77
2020/12/29 03:01:28;;;;;;;1.70;1.60;;;2.80;98.20;;;;;;5015162;28;20492;-78
2020/12/29 03:03:55;;;;;;;1.60;1.40;;;2.80;98.20;;;;;;5013877;28;20483;-78
2020/12/29 03:06:22;;;;;;;1.70;1.50;;;2.80;98.20;;;;;;5014483;28;20476;-78
2020/12/29 03:08:49;;;;;;;1.63;1.50;;;2.80;98.20;;;;;;5014523;28;20484;-78
2020/12/29 03:11:16;;;;;;;1.63;1.33;;;2.80;98.20;;;;;;5015816;28;20468;-79
2020/12/29 03:13:42;;;;;;;1.70;1.50;;;2.80;98.20;;;;;;5015772;28;20508;-80
2020/12/29 03:16:10;;;;;;;1.70;1.50;;;2.80;98.20;;;;;;5011176;28;20548;-79
2020/12/29 03:18:36;;;;;;;1.70;1.50;;;2.80;98.20;;;;;;5017849;28;20492;-78
2020/12/29 03:21:02;;;;;;;1.60;1.50;;;2.80;98.20;;;;;;5018063;28;20518;-79
2020/12/29 03:23:29;;;;;;;1.70;1.50;;;2.80;98.20;;;;;;5018406;28;20467;-79
2020/12/29 03:25:55;;;;;;;1.67;1.40;;;2.80;98.20;;;;;;5018871;28;20519;-79
2020/12/29 03:28:22;;;;;;;1.70;1.40;;;2.80;98.20;;;;;;5014499;28;20539;-79
2020/12/29 03:30:48;;;;;;;1.77;1.67;;;2.90;98.20;;;;;;5012995;28;20464;-79
2020/12/29 03:33:15;;;;;;;1.60;1.40;;;2.90;98.20;;;;;;5020056;28;20876;-80
2020/12/29 03:35:42;;;;;;;1.70;1.40;;;2.90;98.20;;;;;;5016435;28;20469;-78
2020/12/29 03:38:08;;;;;;;1.63;1.40;;;2.90;98.20;;;;;;5015202;28;20485;-78
2020/12/29 03:40:35;;;;;;;1.63;1.40;;;2.90;98.20;;;;;;5019901;28;20460;-78
2020/12/29 03:43:01;;;;;;;1.60;1.37;;;2.90;98.20;;;;;;5019312;28;20504;-78
2020/12/29 03:45:28;;;;;;;1.63;1.40;;;2.90;98.20;;;;;;5017512;28;20507;-78
2020/12/29 03:47:54;;;;;;;1.70;1.50;;;2.90;98.20;;;;;;5010968;28;20497;-80
2020/12/29 03:50:21;;;;;;;1.67;1.50;;;2.90;98.20;;;;;;5020005;28;20925;-79
2020/12/29 03:52:48;;;;;;;1.70;1.50;;;2.90;98.20;;;;;;5017438;28;20503;-78
2020/12/29 03:55:14;;;;;;;1.67;1.40;;;2.80;98.20;;;;;;5016218;28;20480;-78
2020/12/29 03:57:41;;;;;;;1.70;1.60;;;2.80;98.20;;;;;;5019607;28;20495;-78
2020/12/29 04:00:07;;;;;;;1.70;1.50;;;2.80;98.20;;;;;;5022405;28;20484;-78
2020/12/29 04:02:34;;;;;;;1.67;1.50;;;2.80;98.20;;;;;;5018531;28;20492;-78
2020/12/29 04:05:00;;;;;;;1.67;1.50;;;2.70;98.20;;;;;;5021797;28;20495;-78
2020/12/29 04:07:27;;;;;;;1.60;1.50;;;2.70;98.20;;;;;;5019980;28;20496;-78
2020/12/29 04:09:54;;;;;;;1.70;1.60;;;2.70;98.20;;;;;;5020045;28;20484;-80
2020/12/29 04:12:20;;;;;;;1.60;1.40;;;2.60;98.20;;;;;;5018542;28;20464;-79
2020/12/29 04:14:47;;;;;;;1.60;1.47;;;2.60;98.20;;;;;;5018241;28;20555;-79
2020/12/29 04:17:13;;;;;;;1.70;1.60;;;2.60;98.20;;;;;;5021395;28;20488;-79
2020/12/29 04:19:39;;;;;;;1.70;1.50;;;2.60;98.20;;;;;;5022146;28;20531;-78
2020/12/29 04:22:06;;;;;;;1.80;1.70;;;2.60;98.20;;;;;;5019432;28;20457;-79
2020/12/29 04:24:33;;;;;;;2.90;2.70;;;2.60;98.20;;;;;;5029016;28;20483;-79
2020/12/29 04:26:59;;;;;;;1.60;1.50;;;2.60;98.20;;;;;;5018172;28;20523;-79
2020/12/29 04:29:26;;;;;;;1.67;1.53;;;2.70;98.20;;;;;;5021346;28;20480;-78
2020/12/29 04:31:52;;;;;;;1.70;1.50;;;2.70;98.20;;;;;;5019747;28;20456;-79
2020/12/29 04:34:19;;;;;;;1.60;1.50;;;2.70;98.20;;;;;;5021568;28;20564;-79
2020/12/29 04:36:45;;;;;;;1.67;1.50;;;2.70;98.20;;;;;;5020011;28;20492;-78
2020/12/29 04:39:12;;;;;;;1.60;1.50;;;2.70;98.20;;;;;;5019430;28;20924;-78
2020/12/29 04:41:41;;;;;;;1.60;1.40;;;2.70;98.20;;;;;;5021582;28;20464;-78
2020/12/29 04:44:08;;;;;;;1.70;1.50;;;2.70;98.20;;;;;;5020679;28;20519;-78
2020/12/29 04:46:35;;;;;;;1.67;1.50;;;2.60;98.20;;;;;;5020223;28;20519;-79
2020/12/29 04:49:02;;;;;;;1.67;1.50;;;2.60;98.20;;;;;;5023841;28;20480;-79
2020/12/29 04:51:29;;;;;;;1.67;1.40;;;2.60;98.20;;;;;;5022699;28;20515;-79
2020/12/29 04:53:58;;;;;;;1.67;1.40;;;2.60;98.20;;;;;;5023395;28;20468;-78
2020/12/29 04:56:32;;;;;;;1.63;1.50;;;2.50;98.20;;;;;;5017839;28;20828;-78
2020/12/29 04:59:00;;;;;;;1.63;1.40;;;2.50;98.20;;;;;;5010529;28;21335;-78
2020/12/29 05:01:30;;;;;;;1.70;1.50;;;2.40;98.20;;;;;;5020353;28;20540;-78
2020/12/29 05:03:57;;;;;;;1.60;1.50;;;2.40;98.20;;;;;;5013651;28;20560;-79
2020/12/29 05:06:24;;;;;;;1.70;1.47;;;2.30;98.20;;;;;;5018057;28;20508;-78
2020/12/29 05:08:52;;;;;;;1.70;1.50;;;2.30;98.20;;;;;;5013999;28;20528;-78
2020/12/29 05:11:19;;;;;;;1.70;1.50;;;2.30;98.20;;;;;;5013184;28;20941;-77
2020/12/29 05:13:47;;;;;;;1.70;1.50;;;2.20;98.20;;;;;;5007905;28;20506;-77
2020/12/29 05:16:15;;;;;;;1.70;1.50;;;2.20;98.20;;;;;;5015318;28;20619;-77
2020/12/29 05:18:43;;;;;;;1.70;1.47;;;2.20;98.20;;;;;;5014207;28;20500;-77
2020/12/29 05:21:10;;;;;;;1.70;1.50;;;2.10;98.20;;;;;;5012647;28;20839;-78
2020/12/29 05:23:37;;;;;;;1.70;1.60;;;2.00;98.20;;;;;;5016122;28;20492;-77
2020/12/29 05:26:04;;;;;;;1.70;1.60;;;2.00;98.20;;;;;;5013906;28;20516;-77
2020/12/29 05:28:31;;;;;;;1.67;1.50;;;1.90;98.20;;;;;;5014631;28;20937;-77
2020/12/29 05:31:01;;;;;;;1.67;1.50;;;1.90;98.20;;;;;;5010208;28;20508;-77
2020/12/29 05:33:28;;;;;;;1.70;1.60;;;1.80;98.20;;;;;;5011147;28;20460;-77
2020/12/29 05:35:57;;;;;;;1.70;1.50;;;1.70;98.20;;;;;;5012786;28;20559;-77
2020/12/29 05:38:25;;;;;;;1.70;1.60;;;1.70;98.20;;;;;;5010375;28;20527;-77
2020/12/29 05:40:51;;;;;;;1.70;1.50;;;1.60;98.20;;;;;;5010138;28;20547;-77
2020/12/29 05:43:29;;;;;;;1.70;1.60;;;1.60;98.20;;;;;;5012635;28;20500;-77
2020/12/29 05:45:58;;;;;;;1.70;1.60;;;1.50;98.20;;;;;;5007889;28;20866;-77
2020/12/29 05:48:25;;;;;;;1.70;1.50;;;1.50;98.20;;;;;;5010293;28;20572;-77
2020/12/29 05:50:52;;;;;;;1.70;1.50;;;1.50;98.20;;;;;;5008219;28;20544;-77
2020/12/29 05:53:21;;;;;;;1.70;1.60;;;1.40;98.20;;;;;;5013892;28;20469;-77
2020/12/29 05:55:47;;;;;;;1.70;1.60;;;1.40;98.20;;;;;;5012946;28;20708;-79
2020/12/29 05:58:14;;;;;;;1.80;1.70;;;1.30;98.20;;;;;;5011377;28;20512;-78
2020/12/29 06:00:42;;;;;;;1.80;1.70;;;1.30;98.20;;;;;;5012781;28;20472;-78
2020/12/29 06:03:09;;;;;;;1.70;1.60;;;1.30;98.20;;;;;;5005105;28;20497;-78
2020/12/29 06:05:37;;;;;;;1.70;1.60;;;1.20;98.20;;;;;;5004779;28;20508;-77
2020/12/29 06:08:06;;;;;;;1.73;1.63;;;1.20;98.20;;;;;;5010855;28;20500;-76
2020/12/29 06:10:34;;;;;;;1.70;1.50;;;1.20;98.20;;;;;;5009189;28;20964;-77
2020/12/29 06:13:03;;;;;;;1.73;1.63;;;1.10;98.20;;;;;;5005993;28;20979;-78
2020/12/29 06:15:31;;;;;;;1.80;1.70;;;1.10;98.20;;;;;;5008318;28;20465;-78
2020/12/29 06:18:00;;;;;;;1.80;1.70;;;1.10;98.20;;;;;;5009886;28;20495;-77
2020/12/29 06:20:34;;;;;;;1.70;1.50;;;1.10;98.20;;;;;;5007634;28;20865;-77
2020/12/29 06:23:01;;;;;;;1.70;1.60;;;1.00;98.20;;;;;;5010523;28;20496;-77
2020/12/29 06:25:33;;;;;;;1.73;1.63;;;1.00;98.20;;;;;;5011442;28;20506;-77
2020/12/29 06:28:01;;;;;;;1.70;1.50;;;1.00;98.20;;;;;;5009066;28;20461;-78
2020/12/29 06:30:29;;;;;;;1.70;1.50;;;0.90;98.20;;;;;;5008075;28;20488;-78
2020/12/29 06:32:57;;;;;;;1.70;1.60;;;0.90;98.20;;;;;;5017790;28;20581;-77
2020/12/29 06:35:23;;;;;;;1.70;1.60;;;0.90;98.20;;;;;;5004761;28;20931;-77
2020/12/29 06:38:06;;;;;;;1.73;1.63;;;0.80;98.20;;;;;;5009417;28;20465;-77
2020/12/29 06:40:34;;;;;;;1.70;1.60;;;0.80;98.20;;;;;;5007161;28;20622;-77
2020/12/29 06:43:06;;;;;;;1.70;1.60;;;0.80;98.20;;;;;;5005148;28;20501;-77
2020/12/29 06:45:33;;;;;;;1.77;1.67;;;0.80;98.20;;;;;;5008762;28;20483;-77
2020/12/29 06:48:01;;;;;;;1.70;1.57;;;0.70;98.20;;;;;;5007903;28;20628;-77
2020/12/29 06:50:29;;;;;;;1.93;1.73;;;0.70;98.20;;;;;;5009048;28;20460;-77
2020/12/29 06:53:00;;;;;;;1.70;1.57;;;0.70;98.20;;;;;;5012186;28;20487;-77
2020/12/29 06:55:35;;;;;;;1.70;1.60;;;0.70;98.20;;;;;;5011664;28;20492;-77
2020/12/29 06:58:03;;;;;;;1.70;1.50;;;0.60;98.20;;;;;;5006127;28;20484;-77
2020/12/29 07:00:30;;;;;;;2.00;1.80;;;0.60;98.20;;;;;;5012136;28;20469;-77
2020/12/29 07:02:56;;;;;;;1.70;1.60;;;0.60;98.20;;;;;;5004929;28;20551;-76
2020/12/29 07:05:24;;;;;;;2.00;1.80;;;0.60;98.20;;;;;;5006339;28;20972;-77
2020/12/29 07:07:58;;;;;;;1.70;1.60;;;0.60;98.20;;;;;;5009102;28;20468;-77
2020/12/29 07:10:34;;;;;;;1.70;1.60;;;0.60;98.20;;;;;;5004812;28;20464;-78
2020/12/29 07:13:07;;;;;;;1.80;1.70;;;0.60;98.20;;;;;;5007432;28;20464;-76
2020/12/29 07:15:44;;;;;;;1.80;1.70;;;0.70;98.20;;;;;;5006173;28;20463;-77
2020/12/29 07:18:11;;;;;;;1.80;1.70;;;0.70;98.20;;;;;;5010537;28;20496;-77
2020/12/29 07:20:40;;;;;;;1.80;1.67;;;0.70;98.20;;;;;;5009640;28;20617;-78
2020/12/29 07:23:08;;;;;;;1.70;1.60;;;0.70;98.20;;;;;;5014573;28;20496;-78
2020/12/29 07:25:37;;;;;;;1.83;1.73;;;0.70;98.20;;;;;;5009607;28;20485;-77
2020/12/29 07:28:06;;;;;;;1.70;1.60;;;0.70;98.20;;;;;;5005232;28;21160;-78
2020/12/29 07:30:33;;;;;;;1.73;1.60;;;0.70;98.20;;;;;;5015233;28;20824;-77
2020/12/29 07:33:02;;;;;;;1.80;1.60;;;0.80;98.20;;;;;;5010071;28;20500;-77
2020/12/29 07:35:31;;;;;;;1.70;1.60;;;0.80;98.20;;;;;;5009317;28;20547;-76
2020/12/29 07:37:58;;;;;;;1.70;1.60;;;0.80;98.20;;;;;;5010027;28;20503;-77
2020/12/29 07:40:26;;;;;;;2.03;1.87;;;0.80;98.20;;;;;;5011530;28;20468;-77
2020/12/29 07:42:54;;;;;;;1.80;1.70;;;0.80;98.20;;;;;;5011924;28;20460;-77
2020/12/29 07:45:23;;;;;;;1.70;1.50;;;0.80;98.20;;;;;;5008445;28;20464;-76
2020/12/29 07:47:51;;;;;;;1.80;1.70;;;0.80;98.20;;;;;;5009194;28;20559;-76
2020/12/29 07:50:17;;;;;;;1.80;1.70;;;0.90;98.20;;;;;;5011106;28;20468;-77
2020/12/29 07:52:44;;;;;;;1.80;1.70;;;0.90;98.20;;;;;;5016443;28;20524;-76
2020/12/29 07:55:12;;;;;;;1.87;1.73;;;0.90;98.20;;;;;;5013297;28;20495;-77
2020/12/29 07:57:39;;;;;;;1.70;1.60;;;0.90;98.20;;;;;;5011615;28;20497;-77
2020/12/29 08:00:13;;;;;;;1.70;1.60;;;1.00;98.20;;;;;;5010141;28;20488;-76
2020/12/29 08:02:48;;;;;;;1.70;1.60;;;1.00;98.20;;;;;;5012105;28;20460;-76
2020/12/29 08:05:15;;;;;;;1.70;1.60;;;1.10;98.20;;;;;;5013034;28;20967;-77
2020/12/29 08:07:41;;;;;;;1.70;1.60;;;1.10;98.20;;;;;;5011526;28;20496;-77
2020/12/29 08:10:08;;;;;;;1.70;1.60;;;1.20;98.20;;;;;;5013202;28;20516;-77
2020/12/29 08:12:35;;;;;;;1.70;1.50;;;1.30;98.20;;;;;;5016027;28;20464;-80
2020/12/29 08:15:01;;;;;;;1.70;1.50;;;1.30;98.20;;;;;;5013504;28;20654;-78
2020/12/29 08:17:28;;;;;;;1.70;1.60;;;1.40;98.20;;;;;;5015380;28;20488;-79
2020/12/29 08:20:01;;;;;;;1.80;1.70;;;1.50;98.20;;;;;;5016415;28;20543;-79
2020/12/29 08:22:29;;;;;;;1.70;1.60;;;1.60;98.20;;;;;;5013731;28;20461;-81
2020/12/29 08:24:56;;;;;;;1.70;1.50;;;1.60;98.20;;;;;;5021583;28;20470;-79
2020/12/29 08:27:22;;;;;;;1.70;1.50;;;1.70;98.20;;;;;;5015103;28;20554;-79
2020/12/29 08:29:49;;;;;;;1.70;1.60;;;1.70;98.20;;;;;;5010065;28;20897;-80
2020/12/29 08:32:21;;;;;;;1.70;1.57;;;1.70;98.20;;;;;;5015299;28;20499;-79
2020/12/29 08:34:48;;;;;;;1.70;1.50;;;1.80;98.20;;;;;;5020312;28;20469;-80
2020/12/29 08:37:22;;;;;;;1.63;1.50;;;1.90;98.20;;;;;;5009962;28;20493;-79
2020/12/29 08:40:08;;;;;;;1.70;1.50;;;1.90;98.20;;;;;;5008200;28;20544;-80
2020/12/29 08:42:36;;;;;;;1.67;1.40;;;2.00;98.20;;;;;;5013235;28;20540;-80
2020/12/29 08:45:07;;;;;;;1.70;1.50;;;2.00;98.20;;;;;;5012981;28;20465;-80
2020/12/29 08:47:34;;;;;;;1.70;1.60;;;2.10;98.20;;;;;;5012347;28;20901;-77
2020/12/29 08:50:20;;;;;;;6.20;5.80;;;2.10;98.20;;;;;;5015609;28;20550;-78
2020/12/29 08:52:52;;;;;;;1.70;1.60;;;2.20;98.20;;;;;;5008629;28;20962;-79
2020/12/29 08:55:29;;;;;;;1.70;1.50;;;2.20;98.20;;;;;;5018976;28;20535;-79
2020/12/29 08:57:57;;;;;;;1.70;1.50;;;2.30;98.20;;;;;;5013766;28;20488;-79
2020/12/29 09:00:24;;;;;;;1.70;1.40;;;2.30;98.20;;;;;;5010727;28;20532;-79
2020/12/29 09:02:50;;;;;;;1.70;1.50;;;2.30;98.20;;;;;;5008427;28;20465;-79
2020/12/29 09:05:24;;;;;;;1.70;1.50;;;2.40;98.20;;;;;;5007166;28;20465;-79
2020/12/29 09:07:52;;;;;;;1.63;1.50;;;2.40;98.20;;;;;;5012150;28;20468;-79
2020/12/29 09:10:19;;;;;;;1.70;1.50;;;2.50;98.20;;;;;;5015025;28;20890;-79
2020/12/29 09:12:46;;;;;;;1.73;1.63;;;2.50;98.20;;;;;;5013466;28;20499;-78
2020/12/29 09:15:13;;;;;;;1.70;1.50;;;2.60;98.20;;;;;;5013612;28;20772;-78
2020/12/29 09:17:41;;;;;;;1.70;1.50;;;2.60;98.20;;;;;;5014558;28;20496;-78
2020/12/29 09:20:09;;;;;;;1.60;1.40;;;2.60;98.20;;;;;;5011375;28;20489;-79
2020/12/29 09:22:47;;;;;;;1.70;1.50;;;2.60;98.20;;;;;;5014340;28;20538;-79
2020/12/29 09:25:21;;;;;;;1.63;1.50;;;2.70;98.20;;;;;;5014040;28;20452;-80
2020/12/29 09:27:48;;;;;;;1.67;1.50;;;2.70;98.20;;;;;;5008892;28;20518;-78
2020/12/29 09:30:14;;;;;;;1.70;1.50;;;2.80;98.20;;;;;;5010306;28;20488;-78
2020/12/29 09:32:41;;;;;;;1.70;1.40;;;2.90;98.20;;;;;;5016558;28;20469;-78
2020/12/29 09:37:48;;;;;;;1.63;1.40;;;3.10;98.20;;;;;;5011876;28;20484;-79
2020/12/29 09:40:15;;;;;;;1.70;1.50;;;3.20;98.20;;;;;;5011420;28;20496;-78
2020/12/29 09:42:42;;;;;;;1.63;1.40;;;3.20;98.20;;;;;;5014340;28;20460;-80
2020/12/29 09:45:08;;;;;;;1.70;1.50;;;3.30;98.20;;;;;;5013389;28;20460;-80
2020/12/29 09:47:35;;;;;;;1.60;1.40;;;3.30;98.20;;;;;;5012822;28;20779;-79
2020/12/29 09:50:01;;;;;;;1.70;1.50;;;3.40;98.20;;;;;;5016591;28;20480;-79
2020/12/29 09:52:30;;;;;;;1.70;1.40;;;3.40;98.20;;;;;;5012970;28;20686;-78
2020/12/29 09:54:56;;;;;;;1.63;1.40;;;3.40;98.20;;;;;;5005986;28;20467;-78
2020/12/29 09:57:23;;;;;;;1.70;1.40;;;3.50;98.20;;;;;;5008194;28;20471;-78
2020/12/29 09:59:51;;;;;;;1.60;1.40;;;3.50;98.20;;;;;;5011809;28;20488;-76
2020/12/29 10:02:17;;;;;;;1.63;1.40;;;3.50;98.20;;;;;;5016211;28;20488;-75
2020/12/29 10:04:43;;;;;;;1.70;1.50;;;3.50;98.20;;;;;;5013130;28;20468;-77
2020/12/29 10:07:10;;;;;;;1.67;1.40;;;3.50;98.20;;;;;;5004746;28;21035;-77
2020/12/29 10:09:36;;;;;;;1.70;1.40;;;3.50;98.20;;;;;;5012946;28;20527;-78
2020/12/29 10:12:03;;;;;;;1.70;1.50;;;3.50;98.20;;;;;;5008061;28;20951;-79
2020/12/29 10:14:29;;;;;;;1.70;1.50;;;3.60;98.20;;;;;;5015382;28;20488;-77
2020/12/29 10:16:57;;;;;;;1.63;1.40;;;3.60;98.20;;;;;;5011853;28;21007;-79
2020/12/29 10:19:23;;;;;;;1.70;1.60;;;3.60;98.20;;;;;;5015145;28;21036;-77
2020/12/29 10:21:53;;;;;;;1.70;1.50;;;3.70;98.20;;;;;;5011534;28;21016;-78
2020/12/29 10:24:20;;;;;;;1.63;1.40;;;3.70;98.20;;;;;;5015221;28;21010;-78
2020/12/29 10:26:49;;;;;;;1.70;1.50;;;3.80;98.20;;;;;;5019610;28;20586;-78
2020/12/29 10:29:16;;;;;;;1.63;1.40;;;3.80;98.20;;;;;;5010184;28;20503;-79
2020/12/29 10:31:42;;;;;;;1.63;1.40;;;3.90;98.20;;;;;;5024765;28;20673;-80
2020/12/29 10:34:12;;;;;;;1.70;1.50;;;3.90;98.20;;;;;;5009290;28;20480;-77
2020/12/29 10:36:39;;;;;;;1.60;1.30;;;4.00;98.20;;;;;;5009339;28;20469;-79
2020/12/29 10:39:07;;;;;;;1.63;1.40;;;4.00;98.20;;;;;;5004161;28;20511;-76
2020/12/29 10:41:35;;;;;;;1.70;1.53;;;4.10;98.20;;;;;;5007992;28;20971;-76
2020/12/29 10:44:02;;;;;;;1.63;1.37;;;4.10;98.20;;;;;;5010400;28;20472;-77
2020/12/29 10:46:29;;;;;;;1.70;1.30;;;4.20;98.20;;;;;;5008464;28;20512;-78
2020/12/29 10:48:55;;;;;;;1.70;1.40;;;4.30;98.20;;;;;;5005445;28;20531;-79
2020/12/29 10:51:24;;;;;;;1.60;1.30;;;4.30;98.20;;;;;;5017704;28;20471;-77
2020/12/29 10:53:52;;;;;;;1.70;1.50;;;4.30;98.20;;;;;;5023057;28;20528;-78
2020/12/29 10:56:19;;;;;;;1.60;1.30;;;4.30;98.20;;;;;;5009668;28;20469;-77
2020/12/29 10:58:46;;;;;;;1.70;1.43;;;4.40;98.20;;;;;;5009837;28;20508;-78
2020/12/29 11:01:19;;;;;;;1.63;1.30;;;4.40;98.20;;;;;;5018450;28;20510;-78
2020/12/29 11:03:45;;;;;;;1.60;1.30;;;4.40;98.20;;;;;;5004019;28;20503;-77
2020/12/29 11:06:15;;;;;;;1.70;1.40;;;4.50;98.20;;;;;;5007221;28;20554;-77
2020/12/29 11:08:42;;;;;;;1.63;1.40;;;4.50;98.20;;;;;;5008294;28;21051;-77
2020/12/29 11:11:09;;;;;;;1.60;1.37;;;4.50;98.20;;;;;;5006485;28;20472;-78
2020/12/29 11:13:35;;;;;;;1.70;1.30;;;4.60;98.20;;;;;;5010026;28;20509;-78
2020/12/29 11:16:02;;;;;;;1.60;1.33;;;4.60;98.20;;;;;;5004749;28;20484;-77
2020/12/29 11:18:28;;;;;;;1.67;1.33;;;4.60;98.20;;;;;;5001229;28;20531;-77
2020/12/29 11:20:55;;;;;;;1.63;1.30;;;4.70;98.20;;;;;;5015683;28;20460;-78
2020/12/29 11:23:22;;;;;;;1.70;1.47;;;4.70;98.20;;;;;;5010461;28;20461;-78
2020/12/29 11:25:50;;;;;;;1.60;1.30;;;4.70;98.20;;;;;;5005884;28;21523;-78
2020/12/29 11:28:16;;;;;;;2.67;2.47;;;4.70;98.20;;;;;;5008390;28;20576;-79
2020/12/29 11:30:44;;;;;;;1.67;1.40;;;4.80;98.20;;;;;;5006659;28;20465;-78
2020/12/29 11:33:10;;;;;;;1.63;1.40;;;4.80;98.20;;;;;;5006541;28;20914;-77
2020/12/29 11:35:37;;;;;;;1.63;1.30;;;4.80;98.20;;;;;;5003361;28;20500;-78
2020/12/29 11:38:03;;;;;;;1.70;1.30;;;4.90;98.20;;;;;;5008500;28;20471;-79
2020/12/29 11:40:30;;;;;;;1.63;1.30;;;4.90;98.20;;;;;;5002588;28;20493;-78
2020/12/29 11:42:57;;;;;;;1.60;1.30;;;4.90;98.20;;;;;;5012310;28;20978;-78
2020/12/29 11:45:24;;;;;;;1.70;1.40;;;4.90;98.20;;;;;;5014243;28;20509;-77
2020/12/29 11:47:50;;;;;;;1.70;1.40;;;4.90;98.20;;;;;;5007241;28;20495;-78
2020/12/29 11:50:17;;;;;;;1.80;1.70;;;4.90;98.20;;;;;;5011388;28;20620;-76
2020/12/29 11:52:43;;;;;;;1.67;1.40;;;4.90;98.20;;;;;;5002351;28;20459;-77
2020/12/29 11:55:10;;;;;;;1.60;1.37;;;5.00;98.20;;;;;;5002993;28;21445;-78
2020/12/29 11:57:37;;;;;;;1.70;1.40;;;5.00;98.20;;;;;;5005951;28;20755;-79
2020/12/29 12:00:20;;;;;;;1.60;1.30;;;5.00;98.20;;;;;;5004261;28;20544;-78
2020/12/29 12:02:46;;;;;;;1.63;1.40;;;5.00;98.20;;;;;;5010377;28;20567;-78
2020/12/29 12:05:13;;;;;;;1.70;1.50;;;5.10;98.20;;;;;;4996692;28;20547;-77
2020/12/29 12:07:39;;;;;;;1.67;1.40;;;5.10;98.20;;;;;;5002292;28;21083;-78
2020/12/29 12:10:08;;;;;;;1.60;1.30;;;5.10;98.20;;;;;;5004135;28;20558;-79
2020/12/29 12:12:34;;;;;;;3.40;3.10;;;5.10;98.20;;;;;;5011779;28;20555;-78
2020/12/29 12:15:01;;;;;;;1.60;1.30;;;5.20;98.20;;;;;;4999120;28;20907;-78
2020/12/29 12:17:28;;;;;;;1.60;1.30;;;5.20;98.20;;;;;;5004633;28;20488;-77
2020/12/29 12:19:54;;;;;;;1.67;1.30;;;5.30;98.20;;;;;;5015826;28;21214;-75
2020/12/29 12:22:21;;;;;;;1.60;1.30;;;5.40;98.20;;;;;;5002702;28;20514;-77
2020/12/29 12:24:49;;;;;;;1.63;1.30;;;5.40;98.20;;;;;;5010467;28;20463;-77
2020/12/29 12:27:16;;;;;;;1.70;1.40;;;5.40;98.20;;;;;;5005710;28;21225;-77
2020/12/29 12:29:42;;;;;;;1.63;1.30;;;5.50;98.20;;;;;;5007361;28;20804;-76
2020/12/29 12:32:09;;;;;;;1.60;1.20;;;5.50;98.20;;;;;;5008556;28;20473;-76
2020/12/29 12:34:37;;;;;;;1.63;1.30;;;5.60;98.20;;;;;;5000704;28;20567;-77
2020/12/29 12:37:03;;;;;;;1.60;1.30;;;5.70;98.20;;;;;;5000065;28;20533;-77
2020/12/29 12:39:30;;;;;;;3.30;3.10;;;5.70;98.20;;;;;;4993433;28;20585;-77
2020/12/29 12:41:57;;;;;;;1.70;1.40;;;5.80;98.20;;;;;;5006160;28;20561;-77
2020/12/29 12:44:23;;;;;;;1.67;1.40;;;5.80;98.20;;;;;;5006584;28;20545;-78
2020/12/29 12:46:49;;;;;;;1.60;1.20;;;5.90;98.20;;;;;;5007163;28;20945;-78
2020/12/29 12:49:16;;;;;;;1.60;1.30;;;5.90;98.20;;;;;;5009506;28;20524;-78
2020/12/29 12:51:47;;;;;;;1.60;1.20;;;6.00;98.20;;;;;;5004555;28;21060;-78
2020/12/29 12:54:14;;;;;;;1.60;1.20;;;6.20;98.20;;;;;;5013684;28;20469;-77
2020/12/29 12:56:42;;;;;;;1.60;1.20;;;6.30;98.20;;;;;;4996731;28;20491;-77
2020/12/29 12:59:10;;;;;;;1.60;1.30;;;6.30;98.20;;;;;;5005629;28;20969;-78
2020/12/29 13:01:37;;;;;;;1.60;1.20;;;6.30;98.20;;;;;;5002591;28;20468;-78
2020/12/29 13:04:03;;;;;;;1.70;1.30;;;6.30;98.20;;;;;;5002968;28;20674;-77